Time;durP1;ratioP1;P1;durP2;ratioP2;P2;SDS_P1;SDS_P2;PMS_P1;PMS_P2;Temp;Humidity;BMP_temperature;BMP_pressure;BME280_temperature;BME280_humidity;BME280_pressure;Samples;Min_cycle;Max_cycle;Signal;HPM_P1;HPM_P2
2021/11/05 00:01:15;;;;;;;68.90;33.10;;;;;;;14.38;79.70;100167.71;27213;1209;3025797;-68
2021/11/05 00:03:44;;;;;;;91.10;41.40;;;;;;;14.52;78.51;100164.48;27167;1218;3026538;-64
2021/11/05 00:06:14;;;;;;;95.10;40.10;;;;;;;14.37;78.98;100164.58;27205;1217;3054122;-71
2021/11/05 00:08:43;;;;;;;91.60;40.40;;;;;;;14.23;79.54;100163.02;27183;1209;3026203;-72
2021/11/05 00:11:12;;;;;;;79.10;34.40;;;;;;;14.01;80.25;100162.50;27184;1218;3026467;-70
2021/11/05 00:13:41;;;;;;;59.40;31.00;;;;;;;14.28;79.89;100160.44;27174;1217;3050146;-65
2021/11/05 00:16:10;;;;;;;65.70;31.50;;;;;;;14.46;79.09;100157.66;27196;1217;3028992;-67
2021/11/05 00:18:39;;;;;;;68.20;33.10;;;;;;;14.47;78.84;100156.70;27205;1217;3054313;-67
2021/11/05 00:21:08;;;;;;;69.90;32.60;;;;;;;14.31;79.14;100152.33;27215;1218;3026084;-65
2021/11/05 00:23:37;;;;;;;64.30;27.60;;;;;;;14.00;80.48;100151.29;27167;1217;3048140;-69
2021/11/05 00:26:06;;;;;;;63.20;29.20;;;;;;;14.26;79.81;100152.61;27207;1218;3026313;-69
2021/11/05 00:28:35;;;;;;;64.40;31.60;;;;;;;14.40;79.04;100148.16;27205;1218;3067878;-64
2021/11/05 00:31:04;;;;;;;67.40;31.20;;;;;;;14.38;78.91;100155.91;27206;1217;3025996;-69
2021/11/05 00:33:33;;;;;;;71.20;31.80;;;;;;;14.08;79.97;100164.17;27268;1218;3050363;-71
2021/11/05 00:36:03;;;;;;;45.90;23.60;;;;;;;13.98;80.65;100162.72;27162;1217;3027622;-71
2021/11/05 00:38:32;;;;;;;47.80;24.10;;;;;;;14.30;79.88;100158.39;27231;1218;3054228;-69
2021/11/05 00:41:01;;;;;;;47.10;25.20;;;;;;;14.65;78.54;100165.59;27234;1217;3026091;-66
2021/11/05 00:43:30;;;;;;;50.70;27.10;;;;;;;14.48;78.89;100161.23;27220;1218;3048376;-72
2021/11/05 00:45:59;;;;;;;50.10;26.00;;;;;;;14.17;80.01;100159.70;27204;1218;3026556;-67
2021/11/05 00:48:28;;;;;;;34.40;19.50;;;;;;;14.05;80.61;100161.58;27212;1218;3057746;-71
2021/11/05 00:50:57;;;;;;;41.10;21.30;;;;;;;14.39;79.72;100158.98;27195;1209;3025967;-68
2021/11/05 00:53:26;;;;;;;55.10;27.30;;;;;;;14.30;79.84;100164.51;27194;1218;3051290;-65
2021/11/05 00:55:56;;;;;;;46.90;25.30;;;;;;;14.31;79.69;100164.30;27185;1209;3026583;-68
2021/11/05 00:58:25;;;;;;;43.00;22.50;;;;;;;14.16;80.15;100157.65;27146;1218;3026082;-65
2021/11/05 01:00:54;;;;;;;38.70;18.90;;;;;;;13.99;80.68;100155.77;27251;1218;3050263;-68
2021/11/05 01:03:22;;;;;;;39.30;19.80;;;;;;;14.45;79.57;100154.93;27215;1218;3026821;-66
2021/11/05 01:05:52;;;;;;;39.90;20.20;;;;;;;14.66;78.45;100150.73;27226;1218;3053475;-64
2021/11/05 01:08:21;;;;;;;39.60;21.80;;;;;;;14.55;78.56;100151.23;27214;1218;3026242;-73
2021/11/05 01:10:52;;;;;;;38.40;22.20;;;;;;;14.28;79.65;100154.58;27211;1218;3048009;-66
2021/11/05 01:13:21;;;;;;;31.60;17.80;;;;;;;14.13;79.96;100161.73;27260;1217;3026535;-66
2021/11/05 01:15:52;;;;;;;40.00;19.40;;;;;;;14.37;79.47;100152.58;27244;1217;3068838;-72
2021/11/05 01:18:21;;;;;;;41.40;22.30;;;;;;;14.42;79.02;100158.63;27186;1218;3027602;-77
2021/11/05 01:20:50;;;;;;;44.00;23.30;;;;;;;14.29;79.26;100163.67;27245;1217;3026490;-66
2021/11/05 01:23:21;;;;;;;41.70;23.40;;;;;;;14.06;80.16;100162.89;27184;1209;3025937;-74
2021/11/05 01:25:51;;;;;;;34.70;17.40;;;;;;;13.85;81.11;100161.76;27251;1216;3047726;-74
2021/11/05 01:28:20;;;;;;;35.10;18.80;;;;;;;14.25;80.20;100157.05;27261;1209;3026562;-68
2021/11/05 01:30:49;;;;;;;37.20;21.00;;;;;;;14.41;78.94;100154.29;27233;1217;3026155;-72
2021/11/05 01:33:19;;;;;;;40.90;21.20;;;;;;;14.34;79.01;100157.55;27221;1218;3026167;-62
2021/11/05 01:35:51;;;;;;;43.40;22.30;;;;;;;14.21;79.23;100167.40;27239;1218;3054165;-69
2021/11/05 01:38:20;;;;;;;30.50;16.90;;;;;;;14.07;79.78;100168.45;27205;1218;3026413;-69
2021/11/05 01:40:49;;;;;;;33.00;19.50;;;;;;;14.18;79.79;100163.37;27211;1219;3026378;-72
2021/11/05 01:43:18;;;;;;;34.30;20.40;;;;;;;14.36;78.81;100149.46;27223;1218;3050320;-63
2021/11/05 01:45:48;;;;;;;38.30;22.20;;;;;;;14.34;78.70;100157.38;27225;1217;3026352;-72
2021/11/05 01:48:17;;;;;;;41.60;21.40;;;;;;;14.03;79.43;100163.23;27253;1217;3051340;-71
2021/11/05 01:50:46;;;;;;;35.80;16.70;;;;;;;13.96;79.76;100160.86;27193;1215;3026474;-65
2021/11/05 01:53:15;;;;;;;34.20;17.90;;;;;;;14.21;79.39;100151.49;27247;1218;3070300;-70
2021/11/05 01:55:44;;;;;;;40.40;20.60;;;;;;;14.26;79.11;100155.25;27239;1218;3026401;-65
2021/11/05 01:58:13;;;;;;;46.90;22.00;;;;;;;14.15;79.29;100156.66;27226;1219;3049855;-66
2021/11/05 02:00:42;;;;;;;40.50;21.30;;;;;;;13.91;80.19;100163.98;27200;1217;3026622;-68
2021/11/05 02:03:11;;;;;;;34.20;16.60;;;;;;;13.70;81.21;100162.70;27282;1218;3054065;-69
2021/11/05 02:05:40;;;;;;;38.50;20.00;;;;;;;14.24;79.57;100150.80;27235;1218;3028480;-62
2021/11/05 02:08:11;;;;;;;40.00;20.00;;;;;;;14.13;79.33;100144.63;27199;1217;3049120;-66
2021/11/05 02:10:40;;;;;;;38.80;20.30;;;;;;;14.16;79.07;100138.82;27258;1217;3026171;-67
2021/11/05 02:13:09;;;;;;;36.90;20.50;;;;;;;14.20;78.96;100138.53;27194;1218;3057136;-68
2021/11/05 02:15:39;;;;;;;27.00;14.80;;;;;;;14.02;79.59;100138.48;27210;1209;3026309;-66
2021/11/05 02:18:08;;;;;;;30.60;16.20;;;;;;;14.34;78.89;100133.05;27224;1219;3026176;-69
2021/11/05 02:20:38;;;;;;;36.00;19.20;;;;;;;14.59;77.78;100128.65;27230;1218;3058386;-66
2021/11/05 02:23:06;;;;;;;34.10;19.30;;;;;;;14.51;77.88;100125.73;27216;1219;3029809;-72
2021/11/05 02:25:36;;;;;;;37.40;18.60;;;;;;;14.37;78.19;100129.36;27212;1219;3051763;-65
2021/11/05 02:28:05;;;;;;;26.30;14.50;;;;;;;14.10;79.45;100133.57;27193;1219;3026624;-74
2021/11/05 02:30:34;;;;;;;32.60;17.10;;;;;;;14.32;79.08;100128.61;27340;1219;3051901;-73
2021/11/05 02:33:03;;;;;;;39.90;19.40;;;;;;;14.65;77.93;100124.16;27312;1217;3026232;-69
2021/11/05 02:35:32;;;;;;;34.00;18.40;;;;;;;14.42;78.48;100128.30;27287;1218;3051088;-68
2021/11/05 02:38:01;;;;;;;38.20;20.50;;;;;;;14.36;78.73;100132.93;27212;1218;3027426;-70
2021/11/05 02:40:29;;;;;;;35.10;15.60;;;;;;;14.17;79.23;100137.35;27231;1219;3070198;-72
2021/11/05 02:42:59;;;;;;;36.60;18.40;;;;;;;14.26;79.79;100140.45;27243;1216;3026269;-64
2021/11/05 02:45:28;;;;;;;32.80;18.80;;;;;;;14.47;79.10;100137.34;27231;1216;3052197;-73
2021/11/05 02:47:57;;;;;;;39.80;20.30;;;;;;;14.60;78.52;100136.71;27202;1218;3025948;-66
2021/11/05 02:50:26;;;;;;;41.50;21.10;;;;;;;14.38;79.18;100141.27;27224;1216;3054817;-75
2021/11/05 02:52:55;;;;;;;39.00;18.00;;;;;;;14.14;80.49;100145.83;27203;1218;3025902;-68
2021/11/05 02:55:24;;;;;;;34.70;18.50;;;;;;;14.36;80.02;100142.11;27235;1216;3051394;-68
2021/11/05 02:57:52;;;;;;;37.90;20.60;;;;;;;14.56;79.11;100138.99;27210;1219;3027622;-68
2021/11/05 03:00:21;;;;;;;39.50;21.60;;;;;;;14.61;78.60;100135.70;27211;1216;3058296;-65
2021/11/05 03:02:50;;;;;;;42.50;23.80;;;;;;;14.45;79.34;100135.86;27183;1219;3026593;-68
2021/11/05 03:05:19;;;;;;;31.90;16.70;;;;;;;14.32;79.81;100135.50;27219;1210;3026222;-64
2021/11/05 03:07:48;;;;;;;36.00;19.20;;;;;;;14.51;79.60;100135.86;27211;1216;3055450;-71
2021/11/05 03:10:17;;;;;;;36.70;20.70;;;;;;;14.57;79.03;100135.80;27206;1216;3028622;-68
2021/11/05 03:12:46;;;;;;;38.20;22.30;;;;;;;14.58;79.01;100145.24;27176;1217;3051470;-66
2021/11/05 03:15:15;;;;;;;39.70;21.20;;;;;;;14.44;79.49;100143.85;27223;1218;3026039;-70
2021/11/05 03:17:44;;;;;;;32.80;18.50;;;;;;;14.30;80.03;100147.39;27227;1218;3051952;-67
2021/11/05 03:20:13;;;;;;;32.10;18.90;;;;;;;14.41;79.90;100148.11;27218;1209;3025951;-65
2021/11/05 03:22:43;;;;;;;34.80;19.70;;;;;;;14.65;78.77;100146.55;27273;1219;3048509;-69
2021/11/05 03:25:12;;;;;;;38.70;20.90;;;;;;;14.82;78.04;100140.47;27255;1216;3028196;-62
2021/11/05 03:27:41;;;;;;;45.90;23.40;;;;;;;14.46;79.26;100134.19;27209;1218;3026843;-70
2021/11/05 03:30:12;;;;;;;33.70;18.00;;;;;;;14.22;80.25;100129.63;27301;1216;3025794;-64
2021/11/05 03:32:41;;;;;;;36.80;19.50;;;;;;;14.20;80.80;100125.18;27403;1209;3026905;-62
2021/11/05 03:35:10;;;;;;;39.70;22.00;;;;;;;14.46;79.68;100120.45;27473;1216;3025979;-65
2021/11/05 03:37:39;;;;;;;44.40;23.40;;;;;;;14.50;79.68;100120.56;27507;1216;3058454;-66
2021/11/05 03:40:10;;;;;;;41.60;22.90;;;;;;;14.29;80.22;100120.35;27464;1216;3026438;-67
2021/11/05 03:42:39;;;;;;;41.90;18.80;;;;;;;13.96;81.66;100126.38;27452;1216;3026595;-67
2021/11/05 03:45:08;;;;;;;39.00;20.20;;;;;;;14.25;80.78;100119.20;27473;1216;3026459;-68
2021/11/05 03:47:38;;;;;;;37.90;21.50;;;;;;;14.48;79.74;100115.89;27449;1216;3026632;-70
2021/11/05 03:50:07;;;;;;;42.30;21.60;;;;;;;14.35;80.33;100119.96;27439;1216;3026474;-65
2021/11/05 03:52:39;;;;;;;36.10;19.50;;;;;;;14.21;80.55;100121.07;27418;1216;3026056;-64
2021/11/05 03:55:10;;;;;;;33.20;16.40;;;;;;;14.11;81.27;100122.38;27389;1216;3026267;-68
2021/11/05 03:57:39;;;;;;;33.70;18.00;;;;;;;14.25;80.63;100123.79;27360;1219;3048543;-66
2021/11/05 04:00:09;;;;;;;35.90;20.40;;;;;;;14.41;80.05;100117.61;27286;1216;3026489;-73
2021/11/05 04:02:38;;;;;;;39.30;20.20;;;;;;;14.63;79.06;100118.84;27246;1216;3070358;-68
2021/11/05 04:05:07;;;;;;;36.80;20.80;;;;;;;14.43;79.63;100114.50;27238;1216;3026319;-71
2021/11/05 04:07:36;;;;;;;32.10;16.90;;;;;;;14.16;80.42;100108.87;27252;1216;3050757;-70
2021/11/05 04:10:05;;;;;;;32.40;16.70;;;;;;;14.54;79.58;100109.52;27243;1217;3027541;-67
2021/11/05 04:12:34;;;;;;;36.00;19.10;;;;;;;14.66;78.59;100113.02;27382;1216;3052348;-68
2021/11/05 04:15:06;;;;;;;32.40;19.20;;;;;;;14.54;78.86;100113.95;27294;1216;3026331;-66
2021/11/05 04:17:37;;;;;;;35.70;20.50;;;;;;;14.26;80.23;100113.86;27244;1216;3026789;-72
2021/11/05 04:20:07;;;;;;;27.60;16.40;;;;;;;14.02;81.16;100119.44;27265;1216;3027313;-71
2021/11/05 04:22:38;;;;;;;36.90;17.90;;;;;;;14.49;79.56;100114.31;27330;1216;3027553;-65
2021/11/05 04:25:08;;;;;;;36.10;18.30;;;;;;;14.31;79.93;100120.93;27313;1216;3026632;-68
2021/11/05 04:27:39;;;;;;;36.80;20.40;;;;;;;14.26;80.21;100113.34;27342;1218;3026471;-62
2021/11/05 04:30:11;;;;;;;32.70;18.60;;;;;;;13.93;81.25;100125.30;27403;1210;3027791;-66
2021/11/05 04:32:41;;;;;;;27.30;14.20;;;;;;;14.05;81.15;100129.12;27466;1216;3051907;-65
2021/11/05 04:35:10;;;;;;;34.40;17.90;;;;;;;14.61;79.18;100126.85;27439;1212;3029212;-65
2021/11/05 04:37:40;;;;;;;32.90;18.20;;;;;;;14.58;78.59;100130.22;27390;1216;3026361;-69
2021/11/05 04:40:09;;;;;;;32.80;19.00;;;;;;;14.59;78.67;100126.34;27333;1219;3027887;-65
2021/11/05 04:42:38;;;;;;;40.20;21.10;;;;;;;14.16;79.92;100132.96;27338;1216;3058134;-72
2021/11/05 04:45:08;;;;;;;33.90;18.00;;;;;;;13.86;81.30;100138.41;27195;1216;3025972;-70
2021/11/05 04:47:37;;;;;;;35.80;18.20;;;;;;;13.91;81.79;100139.17;27205;1216;3026611;-65
2021/11/05 04:50:07;;;;;;;42.90;19.50;;;;;;;14.29;80.31;100137.09;27293;1216;3058307;-62
2021/11/05 04:52:36;;;;;;;36.50;20.60;;;;;;;14.54;79.08;100131.05;27221;1216;3025812;-71
2021/11/05 04:55:06;;;;;;;45.60;22.80;;;;;;;14.24;79.76;100134.08;27248;1216;3026370;-72
2021/11/05 04:57:36;;;;;;;38.50;17.40;;;;;;;14.04;80.75;100141.88;27216;1216;3055393;-66
2021/11/05 05:00:07;;;;;;;34.40;19.80;;;;;;;14.04;80.91;100150.87;27213;1216;3026596;-67
2021/11/05 05:02:37;;;;;;;42.80;22.60;;;;;;;14.28;80.39;100142.77;27179;1216;3026863;-66
2021/11/05 05:05:06;;;;;;;41.00;22.10;;;;;;;14.20;80.56;100147.15;27204;1216;3026159;-75
2021/11/05 05:07:36;;;;;;;45.60;24.80;;;;;;;14.03;80.95;100148.08;27244;1216;3049215;-66
2021/11/05 05:10:06;;;;;;;38.20;18.70;;;;;;;13.92;81.30;100151.59;27228;1216;3026078;-72
2021/11/05 05:12:35;;;;;;;41.10;23.60;;;;;;;14.40;79.98;100143.43;27245;1216;3055873;-64
2021/11/05 05:15:05;;;;;;;48.20;24.90;;;;;;;14.42;79.74;100149.83;27201;1216;3026317;-66
2021/11/05 05:17:34;;;;;;;46.60;24.20;;;;;;;14.29;79.90;100147.84;27205;1216;3026309;-70
2021/11/05 05:20:05;;;;;;;48.70;24.40;;;;;;;14.01;80.80;100150.89;27247;1216;3026144;-64
2021/11/05 05:22:38;;;;;;;37.70;20.90;;;;;;;13.77;82.35;100152.91;27204;1216;3048417;-73
2021/11/05 05:25:08;;;;;;;47.70;23.30;;;;;;;14.24;80.64;100148.70;27269;1216;3026721;-62
2021/11/05 05:27:38;;;;;;;45.30;23.70;;;;;;;14.32;80.15;100141.80;27291;1216;3026105;-66
2021/11/05 05:30:08;;;;;;;54.40;25.50;;;;;;;14.25;80.37;100149.13;27200;1216;3028494;-70
2021/11/05 05:32:40;;;;;;;48.30;24.90;;;;;;;14.10;80.93;100144.34;27333;1219;3051889;-71
2021/11/05 05:35:10;;;;;;;38.30;20.40;;;;;;;14.03;81.49;100152.53;27340;1216;3029200;-71
2021/11/05 05:37:39;;;;;;;45.40;24.50;;;;;;;14.55;79.88;100150.16;27208;1216;3028114;-70
2021/11/05 05:40:09;;;;;;;55.80;26.90;;;;;;;14.51;79.61;100151.34;27268;1216;3026279;-66
2021/11/05 05:42:38;;;;;;;52.70;27.40;;;;;;;14.22;80.60;100156.95;27223;1216;3050749;-67
2021/11/05 05:45:07;;;;;;;53.20;26.20;;;;;;;14.09;81.14;100156.36;27205;1216;3026453;-65
2021/11/05 05:47:36;;;;;;;39.70;21.20;;;;;;;14.17;81.03;100159.15;27242;1216;3053483;-68
2021/11/05 05:50:06;;;;;;;42.70;22.90;;;;;;;14.46;80.09;100158.39;27243;1216;3026172;-74
2021/11/05 05:52:36;;;;;;;46.60;25.10;;;;;;;14.72;78.84;100154.73;27239;1216;3048423;-67
2021/11/05 05:55:06;;;;;;;54.20;30.10;;;;;;;14.50;79.45;100155.48;27245;1208;3026950;-70
2021/11/05 05:57:36;;;;;;;57.70;28.40;;;;;;;14.23;80.56;100157.92;27250;1217;3026842;-73
2021/11/05 06:00:06;;;;;;;46.10;24.20;;;;;;;14.18;80.81;100152.95;27209;1216;3026065;-65
2021/11/05 06:02:36;;;;;;;48.60;25.40;;;;;;;14.42;80.39;100152.79;27209;1216;3027644;-68
2021/11/05 06:05:05;;;;;;;55.50;27.90;;;;;;;14.76;78.90;100148.85;27247;1216;3025940;-70
2021/11/05 06:07:34;;;;;;;58.60;27.90;;;;;;;14.71;78.81;100148.29;27271;1217;3026341;-62
2021/11/05 06:10:04;;;;;;;59.70;30.00;;;;;;;14.40;79.82;100143.08;27337;1209;3026765;-73
2021/11/05 06:12:33;;;;;;;43.80;23.50;;;;;;;14.14;81.15;100150.23;27223;1209;3025955;-69
2021/11/05 06:15:04;;;;;;;49.10;24.50;;;;;;;14.64;79.68;100147.48;27224;1216;3026243;-70
2021/11/05 06:17:38;;;;;;;55.50;27.80;;;;;;;14.86;78.30;100143.75;27191;1216;3053286;-71
2021/11/05 06:20:07;;;;;;;54.40;28.20;;;;;;;14.63;79.03;100149.11;27198;1216;3028027;-71
2021/11/05 06:22:36;;;;;;;55.60;27.90;;;;;;;14.44;79.77;100149.17;27179;1216;3026318;-67
2021/11/05 06:25:05;;;;;;;46.70;24.30;;;;;;;14.40;80.43;100143.72;27219;1216;3049844;-69
2021/11/05 06:27:38;;;;;;;46.70;24.30;;;;;;;14.90;78.72;100138.00;27259;1216;3026252;-74
2021/11/05 06:30:08;;;;;;;52.80;26.40;;;;;;;15.12;77.38;100140.39;27238;1216;3026520;-69
2021/11/05 06:32:37;;;;;;;58.50;28.10;;;;;;;14.78;78.57;100146.96;27221;1216;3026782;-64
2021/11/05 06:35:06;;;;;;;63.30;29.00;;;;;;;14.70;79.16;100143.23;27226;1216;3028427;-65
2021/11/05 06:37:37;;;;;;;48.20;24.40;;;;;;;14.72;78.79;100147.85;27196;1216;3047996;-74
2021/11/05 06:40:08;;;;;;;53.00;24.30;;;;;;;15.10;77.81;100144.92;27219;1216;3026130;-73
2021/11/05 06:42:40;;;;;;;49.40;26.50;;;;;;;15.35;76.67;100140.36;27251;1216;3026247;-71
2021/11/05 06:45:10;;;;;;;48.80;26.10;;;;;;;15.04;77.75;100142.51;27223;1216;3026599;-69
2021/11/05 06:47:40;;;;;;;50.90;26.70;;;;;;;15.12;77.33;100137.55;27255;1216;3026121;-71
2021/11/05 06:50:10;;;;;;;46.10;22.00;;;;;;;14.81;78.42;100137.56;27244;1216;3025911;-69
2021/11/05 06:52:39;;;;;;;47.30;25.50;;;;;;;15.18;77.46;100137.17;27260;1216;3058025;-70
2021/11/05 06:55:09;;;;;;;54.40;27.60;;;;;;;15.36;76.67;100135.23;27214;1216;3026517;-70
2021/11/05 06:57:38;;;;;;;50.80;26.80;;;;;;;15.20;77.02;100148.34;27260;1216;3053726;-72
2021/11/05 07:00:08;;;;;;;50.00;26.10;;;;;;;14.98;77.91;100150.17;27288;1209;3027545;-72
2021/11/05 07:02:41;;;;;;;38.80;21.60;;;;;;;14.91;78.29;100155.92;27249;1216;3051876;-73
2021/11/05 07:05:13;;;;;;;46.70;23.70;;;;;;;14.93;78.49;100151.04;27264;1216;3026333;-72
2021/11/05 07:07:42;;;;;;;48.20;25.30;;;;;;;15.22;77.44;100148.04;27261;1216;3026114;-74
2021/11/05 07:10:11;;;;;;;55.20;26.80;;;;;;;15.29;77.01;100141.17;27169;1216;3026400;-71
2021/11/05 07:13:06;;;;;;;56.10;26.90;;;;;;;14.98;77.91;100146.64;27191;1216;3054340;-65
2021/11/05 07:15:35;;;;;;;34.70;18.70;;;;;;;14.90;78.35;100147.19;27350;1217;3026520;-69
2021/11/05 07:18:04;;;;;;;41.00;21.40;;;;;;;15.52;76.56;100147.48;27286;1216;3053478;-64
2021/11/05 07:20:35;;;;;;;52.50;26.20;;;;;;;15.89;75.03;100154.98;27252;1216;3026126;-72
2021/11/05 07:23:07;;;;;;;44.70;23.40;;;;;;;15.42;76.28;100163.23;27232;1216;3026565;-67
2021/11/05 07:25:36;;;;;;;49.60;24.30;;;;;;;15.42;76.48;100159.32;27230;1216;3026345;-73
2021/11/05 07:28:05;;;;;;;42.80;22.30;;;;;;;15.14;77.42;100164.61;27216;1209;3026248;-73
2021/11/05 07:30:36;;;;;;;35.80;19.10;;;;;;;14.97;78.25;100167.36;27244;1217;3057660;-73
2021/11/05 07:33:06;;;;;;;40.30;21.10;;;;;;;15.56;76.33;100162.41;27245;1219;3027503;-65
2021/11/05 07:35:36;;;;;;;45.70;21.60;;;;;;;15.74;75.08;100164.02;27266;1219;3027007;-65
2021/11/05 07:38:05;;;;;;;47.40;23.50;;;;;;;15.51;75.68;100166.48;27282;1217;3025945;-68
2021/11/05 07:40:34;;;;;;;43.70;24.60;;;;;;;15.43;76.24;100162.60;27287;1219;3050704;-68
2021/11/05 07:43:03;;;;;;;42.50;22.70;;;;;;;15.23;76.86;100162.24;27276;1218;3025847;-67
2021/11/05 07:45:34;;;;;;;38.00;21.30;;;;;;;15.07;77.64;100171.65;27277;1216;3057649;-67
2021/11/05 07:48:04;;;;;;;44.30;21.80;;;;;;;15.33;76.81;100171.41;27238;1210;3025811;-70
2021/11/05 07:50:33;;;;;;;48.50;21.80;;;;;;;15.84;74.93;100168.62;27264;1222;3028321;-70
2021/11/05 07:53:04;;;;;;;47.70;24.80;;;;;;;15.85;74.42;100174.55;27287;1217;3028608;-72
2021/11/05 07:55:33;;;;;;;48.30;23.00;;;;;;;15.57;75.52;100175.21;27232;1219;3026344;-63
2021/11/05 07:58:02;;;;;;;44.30;24.40;;;;;;;15.47;75.76;100174.71;27246;1218;3027875;-69
2021/11/05 08:00:31;;;;;;;37.60;19.80;;;;;;;15.29;76.69;100184.45;27174;1218;3049997;-68
2021/11/05 08:03:00;;;;;;;45.10;23.10;;;;;;;15.47;76.28;100184.02;27259;1219;3026286;-75
2021/11/05 08:05:29;;;;;;;46.10;24.90;;;;;;;15.72;75.44;100180.55;27330;1217;3051627;-72
2021/11/05 08:07:58;;;;;;;49.20;24.00;;;;;;;16.01;74.44;100180.11;27257;1210;3025781;-69
2021/11/05 08:10:27;;;;;;;49.20;26.70;;;;;;;15.97;74.56;100183.20;27164;1218;3050651;-75
2021/11/05 08:12:56;;;;;;;55.00;26.30;;;;;;;15.74;75.11;100187.66;27291;1218;3026097;-72
2021/11/05 08:15:25;;;;;;;39.30;20.70;;;;;;;15.58;75.85;100185.23;27265;1218;3056115;-68
2021/11/05 08:18:03;;;;;;;41.50;22.60;;;;;;;15.98;74.66;100186.29;27208;1218;3051599;-74
2021/11/05 08:20:32;;;;;;;44.90;22.80;;;;;;;16.28;73.61;100187.69;27177;1217;3026111;-78
2021/11/05 08:23:01;;;;;;;54.50;23.30;;;;;;;16.03;74.27;100190.55;27307;1217;3028221;-65
2021/11/05 08:25:31;;;;;;;43.10;23.00;;;;;;;16.10;74.25;100191.33;27211;1217;3049943;-68
2021/11/05 08:28:00;;;;;;;43.00;23.00;;;;;;;16.00;74.76;100193.25;27201;1217;3026063;-72
2021/11/05 08:34:32;;;;;;;36.60;20.20;;;;;;;16.32;73.62;100183.56;27215;1218;3049342;-68
2021/11/05 08:41:23;;;;;;;41.30;21.30;;;;;;;16.35;73.50;100184.88;27249;1217;3051583;-68
2021/11/05 08:43:55;;;;;;;45.60;20.80;;;;;;;16.08;74.22;100189.52;27213;1218;3025893;-70
2021/11/05 08:46:25;;;;;;;34.10;17.60;;;;;;;16.01;74.82;100192.11;27269;1217;3052719;-64
2021/11/05 08:48:57;;;;;;;42.00;20.70;;;;;;;16.45;73.64;100186.25;27215;1218;3026571;-71
2021/11/05 08:51:27;;;;;;;43.90;22.20;;;;;;;16.77;72.37;100185.02;27200;1218;3026140;-70
2021/11/05 08:53:56;;;;;;;37.80;21.20;;;;;;;16.74;72.21;100188.77;27216;1219;3026356;-71
2021/11/05 08:56:24;;;;;;;47.10;22.90;;;;;;;16.48;73.11;100186.24;27219;1218;3025940;-75
2021/11/05 08:58:54;;;;;;;49.30;25.30;;;;;;;16.39;73.42;100184.44;27215;1218;3069904;-68
2021/11/05 09:01:22;;;;;;;53.80;24.60;;;;;;;16.28;74.03;100185.42;27231;1217;3025876;-70
2021/11/05 09:03:52;;;;;;;36.40;16.70;;;;;;;16.27;74.18;100186.04;27213;1218;3052733;-72
2021/11/05 09:06:21;;;;;;;39.10;19.00;;;;;;;16.81;72.71;100178.32;27299;1218;3025932;-69
2021/11/05 09:08:52;;;;;;;39.40;21.50;;;;;;;17.02;71.53;100174.27;27176;1217;3053360;-73
2021/11/05 09:11:21;;;;;;;54.40;20.90;;;;;;;17.05;71.24;100175.61;27241;1217;3027256;-64
2021/11/05 09:13:50;;;;;;;50.30;23.90;;;;;;;16.87;71.84;100180.50;27239;1218;3026838;-67
2021/11/05 09:16:19;;;;;;;54.60;27.00;;;;;;;16.74;71.98;100180.27;27211;1217;3026267;-74
2021/11/05 09:18:50;;;;;;;48.00;25.00;;;;;;;16.41;73.20;100180.77;27238;1219;3026681;-69
2021/11/05 09:21:19;;;;;;;41.10;20.40;;;;;;;16.57;73.12;100171.95;27205;1218;3025904;-70
2021/11/05 09:23:48;;;;;;;46.60;22.70;;;;;;;16.98;71.88;100168.05;27212;1209;3026241;-67
2021/11/05 09:26:17;;;;;;;46.30;23.40;;;;;;;17.23;70.64;100168.93;27204;1217;3053794;-68
2021/11/05 09:28:46;;;;;;;47.90;24.00;;;;;;;17.29;70.09;100166.21;27182;1217;3025828;-68
2021/11/05 09:31:16;;;;;;;48.30;23.90;;;;;;;17.12;70.49;100169.48;27278;1217;3048642;-66
2021/11/05 09:33:45;;;;;;;55.80;26.40;;;;;;;16.59;72.26;100177.63;27262;1209;3028271;-68
2021/11/05 09:36:16;;;;;;;55.90;25.50;;;;;;;16.63;72.39;100174.35;27188;1218;3069571;-65
2021/11/05 09:38:45;;;;;;;42.20;20.80;;;;;;;16.55;72.61;100178.15;27250;1218;3026388;-66
2021/11/05 09:41:14;;;;;;;55.50;24.90;;;;;;;16.96;71.45;100168.73;27202;1218;3028242;-74
2021/11/05 09:43:43;;;;;;;49.60;23.40;;;;;;;17.21;70.53;100160.06;27180;1218;3070088;-66
2021/11/05 09:46:12;;;;;;;48.20;23.20;;;;;;;17.40;69.60;100156.29;27239;1216;3025993;-78
2021/11/05 09:48:43;;;;;;;56.60;25.10;;;;;;;17.35;69.76;100162.17;27203;1213;3050373;-66
2021/11/05 09:51:12;;;;;;;49.50;24.30;;;;;;;17.14;70.36;100160.64;27250;1218;3026863;-68
2021/11/05 09:53:43;;;;;;;50.90;24.50;;;;;;;17.13;70.58;100164.58;27308;1217;3026970;-68
2021/11/05 09:56:17;;;;;;;41.40;19.30;;;;;;;16.97;70.97;100157.70;27229;1218;3028222;-68
2021/11/05 09:58:46;;;;;;;45.00;22.90;;;;;;;17.52;69.54;100153.10;27318;1218;3028386;-68
2021/11/05 10:01:15;;;;;;;48.00;24.40;;;;;;;17.62;68.46;100152.45;27310;1218;3026503;-70
2021/11/05 10:03:44;;;;;;;46.60;23.80;;;;;;;17.63;68.47;100144.73;27364;1209;3026938;-71
2021/11/05 10:06:16;;;;;;;49.30;24.30;;;;;;;17.43;68.70;100148.44;27351;1217;3054821;-66
2021/11/05 10:08:50;;;;;;;51.20;23.50;;;;;;;17.23;69.61;100153.94;27328;1216;3026794;-72
2021/11/05 10:11:32;;;;;;;52.40;26.60;;;;;;;17.09;69.98;100144.56;27297;1218;3049612;-70
2021/11/05 10:14:05;;;;;;;52.50;24.40;;;;;;;16.97;70.86;100137.30;27363;1217;3052703;-65
2021/11/05 10:16:36;;;;;;;47.80;22.00;;;;;;;17.01;70.80;100132.05;27288;1216;3026117;-73
2021/11/05 10:19:06;;;;;;;52.50;24.70;;;;;;;17.42;69.55;100127.64;27246;1217;3025669;-68
2021/11/05 10:21:40;;;;;;;56.30;25.10;;;;;;;17.78;68.63;100125.55;27266;1218;3028218;-70
2021/11/05 10:24:14;;;;;;;59.00;27.70;;;;;;;17.75;68.53;100121.69;27281;1217;3053685;-68
2021/11/05 10:26:43;;;;;;;;;;;;;;;17.67;68.95;100121.81;27211;1217;3050112;-68
2021/11/05 10:29:31;;;;;;;52.60;24.60;;;;;;;17.40;69.23;100123.77;27296;1217;3027959;-67
2021/11/05 10:32:07;;;;;;;52.50;25.50;;;;;;;17.38;69.33;100132.55;27339;1217;3052694;-70
2021/11/05 10:34:50;;;;;;;39.90;19.60;;;;;;;17.52;68.98;100132.20;27201;1217;3054349;-67
2021/11/05 10:37:29;;;;;;;40.70;19.80;;;;;;;18.30;67.05;100126.64;27292;1217;3055583;-71
2021/11/05 10:39:59;;;;;;;44.40;21.70;;;;;;;18.50;65.32;100126.73;27281;1218;3048626;-71
2021/11/05 10:42:34;;;;;;;42.70;21.90;;;;;;;18.25;65.98;100127.72;27216;1218;3025793;-69
2021/11/05 10:45:13;;;;;;;45.70;22.60;;;;;;;18.02;66.38;100123.80;27188;1218;3050342;-71
2021/11/05 10:47:54;;;;;;;39.60;19.80;;;;;;;17.72;67.05;100127.08;27194;1218;3068217;-69
2021/11/05 10:50:31;;;;;;;33.40;20.20;;;;;;;17.45;68.05;100130.80;27201;1218;3048553;-73
2021/11/05 10:53:09;;;;;;;37.40;19.70;;;;;;;17.62;67.82;100131.90;27337;1218;3052834;-72
2021/11/05 10:55:50;;;;;;;45.40;21.20;;;;;;;17.51;67.84;100133.48;27234;1218;3051709;-67
2021/11/05 10:58:26;;;;;;;39.00;18.60;;;;;;;17.48;67.86;100129.80;27222;1218;3058792;-67
2021/11/05 11:00:58;;;;;;;29.60;15.00;;;;;;;17.55;68.02;100130.54;27201;1219;3049011;-64
2021/11/05 11:03:32;;;;;;;27.10;14.40;;;;;;;18.09;66.29;100127.80;27211;1218;3026236;-65
2021/11/05 11:06:08;;;;;;;29.90;16.10;;;;;;;17.94;65.89;100125.69;27231;1218;3050906;-67
2021/11/05 11:08:42;;;;;;;27.00;16.10;;;;;;;17.88;66.52;100129.15;27204;1217;3067687;-74
2021/11/05 11:11:23;;;;;;;;;;;;;;;17.65;66.85;100128.53;27243;1218;3046745;-70
2021/11/05 11:14:02;;;;;;;23.70;13.60;;;;;;;17.54;67.29;100123.48;27229;1217;3054848;-67
2021/11/05 11:16:34;;;;;;;27.10;15.40;;;;;;;17.39;67.61;100115.88;27200;1218;3051961;-67